sensor_id;sensor_type;location;lat;lon;timestamp;temperature;humidity
42201;DHT22;27869;51.442;7.540;2023-06-22T00:00:52;20.10;99.90
42201;DHT22;27869;51.442;7.540;2023-06-22T00:03:21;20.10;99.90
42201;DHT22;27869;51.442;7.540;2023-06-22T00:05:48;20.10;99.90
42201;DHT22;27869;51.442;7.540;2023-06-22T00:08:16;20.00;99.90
42201;DHT22;27869;51.442;7.540;2023-06-22T00:10:43;20.00;99.90
42201;DHT22;27869;51.442;7.540;2023-06-22T00:13:11;20.00;99.90
42201;DHT22;27869;51.442;7.540;2023-06-22T00:15:41;20.00;99.90
42201;DHT22;27869;51.442;7.540;2023-06-22T00:18:09;20.00;99.90
42201;DHT22;27869;51.442;7.540;2023-06-22T00:20:36;19.90;99.90
42201;DHT22;27869;51.442;7.540;2023-06-22T00:23:04;19.90;99.90
42201;DHT22;27869;51.442;7.540;2023-06-22T00:25:33;19.90;99.90
42201;DHT22;27869;51.442;7.540;2023-06-22T00:28:01;19.90;99.90
42201;DHT22;27869;51.442;7.540;2023-06-22T00:30:27;19.80;99.90
42201;DHT22;27869;51.442;7.540;2023-06-22T00:32:56;19.80;99.90
42201;DHT22;27869;51.442;7.540;2023-06-22T00:35:22;19.80;99.90
42201;DHT22;27869;51.442;7.540;2023-06-22T00:37:54;19.80;99.90
42201;DHT22;27869;51.442;7.540;2023-06-22T00:40:26;19.70;99.90
42201;DHT22;27869;51.442;7.540;2023-06-22T00:42:53;19.70;99.90
42201;DHT22;27869;51.442;7.540;2023-06-22T00:45:20;19.70;99.90
42201;DHT22;27869;51.442;7.540;2023-06-22T00:47:48;19.70;99.90
42201;DHT22;27869;51.442;7.540;2023-06-22T00:50:19;19.70;99.90
42201;DHT22;27869;51.442;7.540;2023-06-22T00:52:49;19.70;99.90
42201;DHT22;27869;51.442;7.540;2023-06-22T00:55:18;19.70;99.90
42201;DHT22;27869;51.442;7.540;2023-06-22T00:57:46;19.70;99.90
42201;DHT22;27869;51.442;7.540;2023-06-22T01:00:14;19.60;99.90
42201;DHT22;27869;51.442;7.540;2023-06-22T01:02:46;19.60;99.90
42201;DHT22;27869;51.442;7.540;2023-06-22T01:05:18;19.60;99.90
42201;DHT22;27869;51.442;7.540;2023-06-22T01:07:55;19.60;99.90
42201;DHT22;27869;51.442;7.540;2023-06-22T01:10:27;19.60;99.90
42201;DHT22;27869;51.442;7.540;2023-06-22T01:12:58;19.60;99.90
42201;DHT22;27869;51.442;7.540;2023-06-22T01:15:29;19.50;99.90
42201;DHT22;27869;51.442;7.540;2023-06-22T01:17:58;19.60;99.90
42201;DHT22;27869;51.442;7.540;2023-06-22T01:20:28;19.60;99.90
42201;DHT22;27869;51.442;7.540;2023-06-22T01:23:05;19.60;99.90
42201;DHT22;27869;51.442;7.540;2023-06-22T01:25:39;19.60;99.90
42201;DHT22;27869;51.442;7.540;2023-06-22T01:28:18;19.50;99.90
42201;DHT22;27869;51.442;7.540;2023-06-22T01:30:49;19.50;99.90
42201;DHT22;27869;51.442;7.540;2023-06-22T01:33:33;19.50;99.90
42201;DHT22;27869;51.442;7.540;2023-06-22T01:36:01;19.50;99.90
42201;DHT22;27869;51.442;7.540;2023-06-22T01:38:29;19.50;99.90
42201;DHT22;27869;51.442;7.540;2023-06-22T01:40:57;19.50;99.90
42201;DHT22;27869;51.442;7.540;2023-06-22T01:43:26;19.50;99.90
42201;DHT22;27869;51.442;7.540;2023-06-22T01:45:55;19.50;99.90
42201;DHT22;27869;51.442;7.540;2023-06-22T01:48:23;19.40;99.90
42201;DHT22;27869;51.442;7.540;2023-06-22T01:50:51;19.40;99.90
42201;DHT22;27869;51.442;7.540;2023-06-22T01:53:20;19.40;99.90
42201;DHT22;27869;51.442;7.540;2023-06-22T01:55:47;19.40;99.90
42201;DHT22;27869;51.442;7.540;2023-06-22T01:58:14;19.40;99.90
42201;DHT22;27869;51.442;7.540;2023-06-22T02:00:47;19.40;99.90
42201;DHT22;27869;51.442;7.540;2023-06-22T02:03:19;19.30;99.90
42201;DHT22;27869;51.442;7.540;2023-06-22T02:05:50;19.30;99.90
42201;DHT22;27869;51.442;7.540;2023-06-22T02:08:20;19.30;99.90
42201;DHT22;27869;51.442;7.540;2023-06-22T02:10:49;19.30;99.90
42201;DHT22;27869;51.442;7.540;2023-06-22T02:13:17;19.20;99.90
42201;DHT22;27869;51.442;7.540;2023-06-22T02:15:45;19.20;99.90
42201;DHT22;27869;51.442;7.540;2023-06-22T02:18:13;19.30;99.90
42201;DHT22;27869;51.442;7.540;2023-06-22T02:20:41;19.20;99.90
42201;DHT22;27869;51.442;7.540;2023-06-22T02:23:08;19.20;99.90
42201;DHT22;27869;51.442;7.540;2023-06-22T02:25:36;19.20;99.90
42201;DHT22;27869;51.442;7.540;2023-06-22T02:28:03;19.20;99.90
42201;DHT22;27869;51.442;7.540;2023-06-22T02:30:30;19.20;99.90
42201;DHT22;27869;51.442;7.540;2023-06-22T02:32:57;19.20;99.90
42201;DHT22;27869;51.442;7.540;2023-06-22T02:35:25;19.20;99.90
42201;DHT22;27869;51.442;7.540;2023-06-22T02:37:54;19.20;99.90
42201;DHT22;27869;51.442;7.540;2023-06-22T02:40:20;19.20;99.90
42201;DHT22;27869;51.442;7.540;2023-06-22T02:42:47;19.10;99.90
42201;DHT22;27869;51.442;7.540;2023-06-22T02:45:14;19.20;99.90
42201;DHT22;27869;51.442;7.540;2023-06-22T02:47:41;19.10;99.90
42201;DHT22;27869;51.442;7.540;2023-06-22T02:50:09;19.10;99.90
42201;DHT22;27869;51.442;7.540;2023-06-22T02:52:36;19.10;99.90
42201;DHT22;27869;51.442;7.540;2023-06-22T02:55:06;19.10;99.90
42201;DHT22;27869;51.442;7.540;2023-06-22T02:57:33;19.10;99.90
42201;DHT22;27869;51.442;7.540;2023-06-22T03:00:03;19.10;99.90
42201;DHT22;27869;51.442;7.540;2023-06-22T03:02:42;19.00;99.90
42201;DHT22;27869;51.442;7.540;2023-06-22T03:05:09;19.00;99.90
42201;DHT22;27869;51.442;7.540;2023-06-22T03:07:39;19.00;99.90
42201;DHT22;27869;51.442;7.540;2023-06-22T03:10:08;18.90;99.90
42201;DHT22;27869;51.442;7.540;2023-06-22T03:12:35;18.90;99.90
42201;DHT22;27869;51.442;7.540;2023-06-22T03:15:03;18.80;99.90
42201;DHT22;27869;51.442;7.540;2023-06-22T03:17:30;18.80;99.90
42201;DHT22;27869;51.442;7.540;2023-06-22T03:19:57;18.80;99.90
42201;DHT22;27869;51.442;7.540;2023-06-22T03:22:24;18.80;99.90
42201;DHT22;27869;51.442;7.540;2023-06-22T03:24:51;18.80;99.90
42201;DHT22;27869;51.442;7.540;2023-06-22T03:27:19;18.80;99.90
42201;DHT22;27869;51.442;7.540;2023-06-22T03:29:46;18.70;99.90
42201;DHT22;27869;51.442;7.540;2023-06-22T03:32:13;18.70;99.90
42201;DHT22;27869;51.442;7.540;2023-06-22T03:34:39;18.70;99.90
42201;DHT22;27869;51.442;7.540;2023-06-22T03:37:06;18.70;99.90
42201;DHT22;27869;51.442;7.540;2023-06-22T03:39:33;18.70;99.90
42201;DHT22;27869;51.442;7.540;2023-06-22T03:42:00;18.70;99.90
42201;DHT22;27869;51.442;7.540;2023-06-22T03:44:28;18.70;99.90
42201;DHT22;27869;51.442;7.540;2023-06-22T03:46:55;18.60;99.90
42201;DHT22;27869;51.442;7.540;2023-06-22T03:49:22;18.70;99.90
42201;DHT22;27869;51.442;7.540;2023-06-22T03:51:48;18.70;99.90
42201;DHT22;27869;51.442;7.540;2023-06-22T03:54:15;18.70;99.90
42201;DHT22;27869;51.442;7.540;2023-06-22T03:56:42;18.70;99.90
42201;DHT22;27869;51.442;7.540;2023-06-22T03:59:09;18.70;99.90
42201;DHT22;27869;51.442;7.540;2023-06-22T04:01:37;18.70;99.90
42201;DHT22;27869;51.442;7.540;2023-06-22T04:04:05;18.70;99.90
42201;DHT22;27869;51.442;7.540;2023-06-22T04:06:32;18.70;99.90
42201;DHT22;27869;51.442;7.540;2023-06-22T04:08:59;18.70;99.90
42201;DHT22;27869;51.442;7.540;2023-06-22T04:11:26;18.80;99.90
42201;DHT22;27869;51.442;7.540;2023-06-22T04:13:53;18.80;99.90
42201;DHT22;27869;51.442;7.540;2023-06-22T04:16:21;18.80;99.90
42201;DHT22;27869;51.442;7.540;2023-06-22T04:18:49;18.80;99.90
42201;DHT22;27869;51.442;7.540;2023-06-22T04:21:16;18.90;99.90
42201;DHT22;27869;51.442;7.540;2023-06-22T04:23:42;18.90;99.90
42201;DHT22;27869;51.442;7.540;2023-06-22T04:26:09;18.90;99.90
42201;DHT22;27869;51.442;7.540;2023-06-22T04:28:36;19.00;99.90
42201;DHT22;27869;51.442;7.540;2023-06-22T04:31:03;19.00;99.90
42201;DHT22;27869;51.442;7.540;2023-06-22T04:33:31;19.10;99.90
42201;DHT22;27869;51.442;7.540;2023-06-22T04:35:59;19.10;99.90
42201;DHT22;27869;51.442;7.540;2023-06-22T04:38:27;19.20;99.90
42201;DHT22;27869;51.442;7.540;2023-06-22T04:40:54;19.20;99.90
42201;DHT22;27869;51.442;7.540;2023-06-22T04:43:20;19.30;99.90
42201;DHT22;27869;51.442;7.540;2023-06-22T04:45:47;19.30;99.90
42201;DHT22;27869;51.442;7.540;2023-06-22T04:48:18;19.40;99.90
42201;DHT22;27869;51.442;7.540;2023-06-22T04:50:44;19.40;99.90
42201;DHT22;27869;51.442;7.540;2023-06-22T04:53:13;19.40;99.90
42201;DHT22;27869;51.442;7.540;2023-06-22T04:55:40;19.50;99.90
42201;DHT22;27869;51.442;7.540;2023-06-22T04:58:11;19.50;99.90
42201;DHT22;27869;51.442;7.540;2023-06-22T05:00:38;19.50;99.90
42201;DHT22;27869;51.442;7.540;2023-06-22T05:03:05;19.50;99.90
42201;DHT22;27869;51.442;7.540;2023-06-22T05:05:36;19.60;99.90
42201;DHT22;27869;51.442;7.540;2023-06-22T05:08:03;19.50;99.90
42201;DHT22;27869;51.442;7.540;2023-06-22T05:10:33;19.60;99.90
42201;DHT22;27869;51.442;7.540;2023-06-22T05:13:00;19.50;99.90
42201;DHT22;27869;51.442;7.540;2023-06-22T05:15:27;19.50;99.90
42201;DHT22;27869;51.442;7.540;2023-06-22T05:17:56;19.40;99.90
42201;DHT22;27869;51.442;7.540;2023-06-22T05:20:23;19.40;99.90
42201;DHT22;27869;51.442;7.540;2023-06-22T05:22:50;19.40;99.90
42201;DHT22;27869;51.442;7.540;2023-06-22T05:25:17;19.40;99.90
42201;DHT22;27869;51.442;7.540;2023-06-22T05:27:45;19.40;99.90
42201;DHT22;27869;51.442;7.540;2023-06-22T05:30:13;19.40;99.90
42201;DHT22;27869;51.442;7.540;2023-06-22T05:32:41;19.40;99.90
42201;DHT22;27869;51.442;7.540;2023-06-22T05:35:09;19.40;99.90
42201;DHT22;27869;51.442;7.540;2023-06-22T05:37:36;19.30;99.90
42201;DHT22;27869;51.442;7.540;2023-06-22T05:40:04;19.30;99.90
42201;DHT22;27869;51.442;7.540;2023-06-22T05:42:32;19.30;99.90
42201;DHT22;27869;51.442;7.540;2023-06-22T05:45:00;19.30;99.90
42201;DHT22;27869;51.442;7.540;2023-06-22T05:47:27;19.30;99.90
42201;DHT22;27869;51.442;7.540;2023-06-22T05:49:54;19.30;99.90
42201;DHT22;27869;51.442;7.540;2023-06-22T05:52:21;19.30;99.90
42201;DHT22;27869;51.442;7.540;2023-06-22T05:54:48;19.30;99.90
42201;DHT22;27869;51.442;7.540;2023-06-22T05:57:15;19.30;99.90
42201;DHT22;27869;51.442;7.540;2023-06-22T05:59:41;19.40;99.90
42201;DHT22;27869;51.442;7.540;2023-06-22T06:02:09;19.40;99.90
42201;DHT22;27869;51.442;7.540;2023-06-22T06:04:36;19.40;99.90
42201;DHT22;27869;51.442;7.540;2023-06-22T06:07:07;19.50;99.90
42201;DHT22;27869;51.442;7.540;2023-06-22T06:09:34;19.50;99.90
42201;DHT22;27869;51.442;7.540;2023-06-22T06:12:00;19.50;99.90
42201;DHT22;27869;51.442;7.540;2023-06-22T06:14:28;19.50;99.90
42201;DHT22;27869;51.442;7.540;2023-06-22T06:16:55;19.50;99.90
42201;DHT22;27869;51.442;7.540;2023-06-22T06:19:23;19.60;99.90
42201;DHT22;27869;51.442;7.540;2023-06-22T06:21:50;19.60;99.90
42201;DHT22;27869;51.442;7.540;2023-06-22T06:24:17;19.60;99.90
42201;DHT22;27869;51.442;7.540;2023-06-22T06:26:43;19.60;99.90
42201;DHT22;27869;51.442;7.540;2023-06-22T06:29:10;19.60;99.90
42201;DHT22;27869;51.442;7.540;2023-06-22T06:31:37;19.60;99.90
42201;DHT22;27869;51.442;7.540;2023-06-22T06:34:04;19.70;99.90
42201;DHT22;27869;51.442;7.540;2023-06-22T06:36:32;19.70;99.90
42201;DHT22;27869;51.442;7.540;2023-06-22T06:38:59;19.70;99.90
42201;DHT22;27869;51.442;7.540;2023-06-22T06:41:26;19.70;99.90
42201;DHT22;27869;51.442;7.540;2023-06-22T06:43:52;19.70;99.90
42201;DHT22;27869;51.442;7.540;2023-06-22T06:46:19;19.70;99.90
42201;DHT22;27869;51.442;7.540;2023-06-22T06:48:46;19.80;99.90
42201;DHT22;27869;51.442;7.540;2023-06-22T06:51:13;19.80;99.90
42201;DHT22;27869;51.442;7.540;2023-06-22T06:53:41;19.90;99.90
42201;DHT22;27869;51.442;7.540;2023-06-22T06:56:08;19.90;99.90
42201;DHT22;27869;51.442;7.540;2023-06-22T06:58:36;20.00;99.90
42201;DHT22;27869;51.442;7.540;2023-06-22T07:01:03;20.00;99.90
42201;DHT22;27869;51.442;7.540;2023-06-22T07:03:30;20.10;99.90
42201;DHT22;27869;51.442;7.540;2023-06-22T07:05:58;20.10;99.90
42201;DHT22;27869;51.442;7.540;2023-06-22T07:08:25;20.20;99.90
42201;DHT22;27869;51.442;7.540;2023-06-22T07:10:53;20.20;99.90
42201;DHT22;27869;51.442;7.540;2023-06-22T07:13:20;20.30;99.90
42201;DHT22;27869;51.442;7.540;2023-06-22T07:15:47;20.30;99.90
42201;DHT22;27869;51.442;7.540;2023-06-22T07:18:14;20.40;99.90
42201;DHT22;27869;51.442;7.540;2023-06-22T07:20:41;20.40;99.90
42201;DHT22;27869;51.442;7.540;2023-06-22T07:23:08;20.40;99.90
42201;DHT22;27869;51.442;7.540;2023-06-22T07:25:35;20.50;99.90
42201;DHT22;27869;51.442;7.540;2023-06-22T07:28:04;20.50;99.90
42201;DHT22;27869;51.442;7.540;2023-06-22T07:30:32;20.50;99.90
42201;DHT22;27869;51.442;7.540;2023-06-22T07:32:59;20.50;99.90
42201;DHT22;27869;51.442;7.540;2023-06-22T07:35:29;20.50;99.90
42201;DHT22;27869;51.442;7.540;2023-06-22T07:37:56;20.50;99.90
42201;DHT22;27869;51.442;7.540;2023-06-22T07:40:23;20.50;99.90
42201;DHT22;27869;51.442;7.540;2023-06-22T07:42:50;20.60;99.90
42201;DHT22;27869;51.442;7.540;2023-06-22T07:45:20;20.70;99.90
42201;DHT22;27869;51.442;7.540;2023-06-22T07:47:47;20.70;99.90
42201;DHT22;27869;51.442;7.540;2023-06-22T07:50:14;20.70;99.90
42201;DHT22;27869;51.442;7.540;2023-06-22T07:52:41;20.80;99.90
42201;DHT22;27869;51.442;7.540;2023-06-22T07:55:08;20.80;99.90
42201;DHT22;27869;51.442;7.540;2023-06-22T07:57:35;20.90;99.90
42201;DHT22;27869;51.442;7.540;2023-06-22T08:00:04;21.00;99.90
42201;DHT22;27869;51.442;7.540;2023-06-22T08:02:39;21.00;99.90
42201;DHT22;27869;51.442;7.540;2023-06-22T08:05:07;21.10;99.90
42201;DHT22;27869;51.442;7.540;2023-06-22T08:07:35;21.20;99.90
42201;DHT22;27869;51.442;7.540;2023-06-22T08:10:03;21.20;99.90
42201;DHT22;27869;51.442;7.540;2023-06-22T08:12:30;21.30;99.90
42201;DHT22;27869;51.442;7.540;2023-06-22T08:14:57;21.40;99.90
42201;DHT22;27869;51.442;7.540;2023-06-22T08:17:24;21.50;99.90
42201;DHT22;27869;51.442;7.540;2023-06-22T08:19:52;21.50;99.90
42201;DHT22;27869;51.442;7.540;2023-06-22T08:22:19;21.60;99.90
42201;DHT22;27869;51.442;7.540;2023-06-22T08:24:46;21.80;99.90
42201;DHT22;27869;51.442;7.540;2023-06-22T08:27:13;21.90;99.90
42201;DHT22;27869;51.442;7.540;2023-06-22T08:29:40;22.10;99.90
42201;DHT22;27869;51.442;7.540;2023-06-22T08:32:08;22.30;99.90
42201;DHT22;27869;51.442;7.540;2023-06-22T08:34:36;22.60;99.90
42201;DHT22;27869;51.442;7.540;2023-06-22T08:37:09;22.80;99.90
42201;DHT22;27869;51.442;7.540;2023-06-22T08:39:36;23.00;99.90
42201;DHT22;27869;51.442;7.540;2023-06-22T08:42:05;23.30;99.90
42201;DHT22;27869;51.442;7.540;2023-06-22T08:44:32;23.40;99.90
42201;DHT22;27869;51.442;7.540;2023-06-22T08:46:59;23.60;99.90
42201;DHT22;27869;51.442;7.540;2023-06-22T08:49:26;23.60;99.90
42201;DHT22;27869;51.442;7.540;2023-06-22T08:51:52;23.70;99.90
42201;DHT22;27869;51.442;7.540;2023-06-22T08:54:23;23.80;99.90
42201;DHT22;27869;51.442;7.540;2023-06-22T08:56:49;24.00;99.90
42201;DHT22;27869;51.442;7.540;2023-06-22T08:59:16;24.20;99.90
42201;DHT22;27869;51.442;7.540;2023-06-22T09:01:43;24.40;99.90
42201;DHT22;27869;51.442;7.540;2023-06-22T09:04:11;24.40;99.90
42201;DHT22;27869;51.442;7.540;2023-06-22T09:06:38;24.60;99.90
42201;DHT22;27869;51.442;7.540;2023-06-22T09:09:10;24.70;99.90
42201;DHT22;27869;51.442;7.540;2023-06-22T09:11:38;24.90;99.90
42201;DHT22;27869;51.442;7.540;2023-06-22T09:14:05;25.00;99.90
42201;DHT22;27869;51.442;7.540;2023-06-22T09:16:32;25.20;99.90
42201;DHT22;27869;51.442;7.540;2023-06-22T09:18:59;25.40;99.90
42201;DHT22;27869;51.442;7.540;2023-06-22T09:21:26;25.50;99.90
42201;DHT22;27869;51.442;7.540;2023-06-22T09:23:53;25.60;99.90
42201;DHT22;27869;51.442;7.540;2023-06-22T09:26:20;25.80;99.90
42201;DHT22;27869;51.442;7.540;2023-06-22T09:28:49;25.90;99.90
42201;DHT22;27869;51.442;7.540;2023-06-22T09:31:16;26.10;99.90
42201;DHT22;27869;51.442;7.540;2023-06-22T09:33:43;26.20;99.90
42201;DHT22;27869;51.442;7.540;2023-06-22T09:36:10;26.40;99.90
42201;DHT22;27869;51.442;7.540;2023-06-22T09:38:37;26.60;99.90
42201;DHT22;27869;51.442;7.540;2023-06-22T09:41:04;26.80;99.90
42201;DHT22;27869;51.442;7.540;2023-06-22T09:43:32;26.90;99.90
42201;DHT22;27869;51.442;7.540;2023-06-22T09:46:01;26.80;99.90
42201;DHT22;27869;51.442;7.540;2023-06-22T09:48:28;26.80;99.90
42201;DHT22;27869;51.442;7.540;2023-06-22T09:50:56;26.70;99.90
42201;DHT22;27869;51.442;7.540;2023-06-22T09:53:23;26.70;99.90
42201;DHT22;27869;51.442;7.540;2023-06-22T09:55:50;26.60;99.90
42201;DHT22;27869;51.442;7.540;2023-06-22T09:58:17;26.50;99.90
42201;DHT22;27869;51.442;7.540;2023-06-22T10:00:43;26.50;99.90
42201;DHT22;27869;51.442;7.540;2023-06-22T10:03:12;26.50;99.90
42201;DHT22;27869;51.442;7.540;2023-06-22T10:05:38;26.40;99.90
42201;DHT22;27869;51.442;7.540;2023-06-22T10:08:06;26.40;99.90
42201;DHT22;27869;51.442;7.540;2023-06-22T10:10:35;26.40;99.90
42201;DHT22;27869;51.442;7.540;2023-06-22T10:13:07;26.50;99.90
42201;DHT22;27869;51.442;7.540;2023-06-22T10:15:35;26.60;99.90
42201;DHT22;27869;51.442;7.540;2023-06-22T10:18:02;26.60;99.90
42201;DHT22;27869;51.442;7.540;2023-06-22T10:20:30;26.70;99.90
42201;DHT22;27869;51.442;7.540;2023-06-22T10:22:57;26.70;99.90
42201;DHT22;27869;51.442;7.540;2023-06-22T10:25:24;26.70;99.90
42201;DHT22;27869;51.442;7.540;2023-06-22T10:27:51;26.80;99.90
42201;DHT22;27869;51.442;7.540;2023-06-22T10:30:18;26.90;99.90
42201;DHT22;27869;51.442;7.540;2023-06-22T10:32:44;27.10;99.90
42201;DHT22;27869;51.442;7.540;2023-06-22T10:35:11;27.10;99.90
42201;DHT22;27869;51.442;7.540;2023-06-22T10:37:40;27.10;99.90
42201;DHT22;27869;51.442;7.540;2023-06-22T10:40:09;27.20;99.90
42201;DHT22;27869;51.442;7.540;2023-06-22T10:42:36;27.20;99.90
42201;DHT22;27869;51.442;7.540;2023-06-22T10:45:03;27.20;99.90
42201;DHT22;27869;51.442;7.540;2023-06-22T10:47:30;27.20;99.90
42201;DHT22;27869;51.442;7.540;2023-06-22T10:49:57;27.10;99.90
42201;DHT22;27869;51.442;7.540;2023-06-22T10:52:24;27.10;99.90
42201;DHT22;27869;51.442;7.540;2023-06-22T10:54:52;27.00;99.90
42201;DHT22;27869;51.442;7.540;2023-06-22T10:57:19;26.90;99.90
42201;DHT22;27869;51.442;7.540;2023-06-22T10:59:46;26.80;99.90
42201;DHT22;27869;51.442;7.540;2023-06-22T11:02:12;26.80;99.90
42201;DHT22;27869;51.442;7.540;2023-06-22T11:04:39;26.80;99.90
42201;DHT22;27869;51.442;7.540;2023-06-22T11:07:06;26.70;99.90
42201;DHT22;27869;51.442;7.540;2023-06-22T11:09:33;26.60;99.90
42201;DHT22;27869;51.442;7.540;2023-06-22T11:12:01;26.60;99.90
42201;DHT22;27869;51.442;7.540;2023-06-22T11:14:28;26.60;99.90
42201;DHT22;27869;51.442;7.540;2023-06-22T11:16:55;26.50;99.90
42201;DHT22;27869;51.442;7.540;2023-06-22T11:19:22;26.50;99.90
42201;DHT22;27869;51.442;7.540;2023-06-22T11:21:49;26.40;99.90
42201;DHT22;27869;51.442;7.540;2023-06-22T11:24:16;26.30;99.90
42201;DHT22;27869;51.442;7.540;2023-06-22T11:26:43;26.20;99.90
42201;DHT22;27869;51.442;7.540;2023-06-22T11:29:11;26.10;99.90
42201;DHT22;27869;51.442;7.540;2023-06-22T11:31:38;26.00;99.90
42201;DHT22;27869;51.442;7.540;2023-06-22T11:34:05;25.90;99.90
42201;DHT22;27869;51.442;7.540;2023-06-22T11:36:32;25.80;99.90
42201;DHT22;27869;51.442;7.540;2023-06-22T11:39:01;25.70;99.90
42201;DHT22;27869;51.442;7.540;2023-06-22T11:41:28;25.50;99.90
42201;DHT22;27869;51.442;7.540;2023-06-22T11:43:54;25.50;99.90
42201;DHT22;27869;51.442;7.540;2023-06-22T11:46:23;25.30;99.90
42201;DHT22;27869;51.442;7.540;2023-06-22T11:48:50;25.20;99.90
42201;DHT22;27869;51.442;7.540;2023-06-22T11:51:17;25.10;99.90
42201;DHT22;27869;51.442;7.540;2023-06-22T11:53:43;25.00;99.90
42201;DHT22;27869;51.442;7.540;2023-06-22T11:56:10;24.90;99.90
42201;DHT22;27869;51.442;7.540;2023-06-22T11:58:37;24.80;99.90
42201;DHT22;27869;51.442;7.540;2023-06-22T12:01:04;24.70;99.90
42201;DHT22;27869;51.442;7.540;2023-06-22T12:03:32;24.60;99.90
42201;DHT22;27869;51.442;7.540;2023-06-22T12:05:59;24.40;99.90
42201;DHT22;27869;51.442;7.540;2023-06-22T12:08:26;24.30;99.90
42201;DHT22;27869;51.442;7.540;2023-06-22T12:10:53;24.20;99.90
42201;DHT22;27869;51.442;7.540;2023-06-22T12:13:21;24.10;99.90
42201;DHT22;27869;51.442;7.540;2023-06-22T12:15:48;24.10;99.90
42201;DHT22;27869;51.442;7.540;2023-06-22T12:18:14;24.00;99.90
42201;DHT22;27869;51.442;7.540;2023-06-22T12:20:43;24.00;99.90
42201;DHT22;27869;51.442;7.540;2023-06-22T12:23:10;23.90;99.90
42201;DHT22;27869;51.442;7.540;2023-06-22T12:25:37;23.90;99.90
42201;DHT22;27869;51.442;7.540;2023-06-22T12:28:04;23.80;99.90
42201;DHT22;27869;51.442;7.540;2023-06-22T12:30:32;23.80;99.90
42201;DHT22;27869;51.442;7.540;2023-06-22T12:32:59;23.80;99.90
42201;DHT22;27869;51.442;7.540;2023-06-22T12:35:25;23.80;99.90
42201;DHT22;27869;51.442;7.540;2023-06-22T12:37:54;23.70;99.90
42201;DHT22;27869;51.442;7.540;2023-06-22T12:40:21;23.80;99.90
42201;DHT22;27869;51.442;7.540;2023-06-22T12:42:47;23.70;99.90
42201;DHT22;27869;51.442;7.540;2023-06-22T12:45:15;23.60;99.90
42201;DHT22;27869;51.442;7.540;2023-06-22T12:47:42;23.50;99.90
42201;DHT22;27869;51.442;7.540;2023-06-22T12:50:09;23.30;99.90
42201;DHT22;27869;51.442;7.540;2023-06-22T12:52:37;23.30;99.90
42201;DHT22;27869;51.442;7.540;2023-06-22T12:55:07;23.20;99.90
42201;DHT22;27869;51.442;7.540;2023-06-22T12:57:34;23.10;99.90
42201;DHT22;27869;51.442;7.540;2023-06-22T13:00:01;23.00;99.90
42201;DHT22;27869;51.442;7.540;2023-06-22T13:02:28;23.00;99.90
42201;DHT22;27869;51.442;7.540;2023-06-22T13:04:55;23.10;99.90
42201;DHT22;27869;51.442;7.540;2023-06-22T13:07:22;23.10;99.90
42201;DHT22;27869;51.442;7.540;2023-06-22T13:09:49;23.20;99.90
42201;DHT22;27869;51.442;7.540;2023-06-22T13:12:19;23.20;99.90
42201;DHT22;27869;51.442;7.540;2023-06-22T13:14:46;23.20;99.90
42201;DHT22;27869;51.442;7.540;2023-06-22T13:17:13;23.20;99.90
42201;DHT22;27869;51.442;7.540;2023-06-22T13:19:40;23.20;99.90
42201;DHT22;27869;51.442;7.540;2023-06-22T13:22:29;23.20;99.90
42201;DHT22;27869;51.442;7.540;2023-06-22T13:24:56;23.20;99.90
42201;DHT22;27869;51.442;7.540;2023-06-22T13:27:25;23.20;99.90
42201;DHT22;27869;51.442;7.540;2023-06-22T13:29:52;23.20;99.90
42201;DHT22;27869;51.442;7.540;2023-06-22T13:32:19;23.20;99.90
42201;DHT22;27869;51.442;7.540;2023-06-22T13:34:46;23.20;99.90
42201;DHT22;27869;51.442;7.540;2023-06-22T13:37:13;23.20;99.90
42201;DHT22;27869;51.442;7.540;2023-06-22T13:39:40;23.20;99.90
42201;DHT22;27869;51.442;7.540;2023-06-22T13:42:07;23.30;99.90
42201;DHT22;27869;51.442;7.540;2023-06-22T13:44:35;23.20;99.90
42201;DHT22;27869;51.442;7.540;2023-06-22T13:47:03;23.30;99.90
42201;DHT22;27869;51.442;7.540;2023-06-22T13:49:31;23.30;99.90
42201;DHT22;27869;51.442;7.540;2023-06-22T13:51:57;23.30;99.90
42201;DHT22;27869;51.442;7.540;2023-06-22T13:54:24;23.40;99.90
42201;DHT22;27869;51.442;7.540;2023-06-22T13:56:51;23.40;99.90
42201;DHT22;27869;51.442;7.540;2023-06-22T13:59:18;23.40;99.90
42201;DHT22;27869;51.442;7.540;2023-06-22T14:01:47;23.40;99.90
42201;DHT22;27869;51.442;7.540;2023-06-22T14:04:14;23.40;99.90
42201;DHT22;27869;51.442;7.540;2023-06-22T14:06:41;23.40;99.90
42201;DHT22;27869;51.442;7.540;2023-06-22T14:09:08;23.40;99.90
42201;DHT22;27869;51.442;7.540;2023-06-22T14:11:34;23.30;99.90
42201;DHT22;27869;51.442;7.540;2023-06-22T14:14:01;23.30;99.90
42201;DHT22;27869;51.442;7.540;2023-06-22T14:16:28;23.30;99.90
42201;DHT22;27869;51.442;7.540;2023-06-22T14:18:56;23.30;99.90
42201;DHT22;27869;51.442;7.540;2023-06-22T14:21:23;23.30;99.90
42201;DHT22;27869;51.442;7.540;2023-06-22T14:23:50;23.30;99.90
42201;DHT22;27869;51.442;7.540;2023-06-22T14:26:17;23.30;99.90
42201;DHT22;27869;51.442;7.540;2023-06-22T14:28:45;23.30;99.90
42201;DHT22;27869;51.442;7.540;2023-06-22T14:31:14;23.30;99.90
42201;DHT22;27869;51.442;7.540;2023-06-22T14:33:45;23.30;99.90
42201;DHT22;27869;51.442;7.540;2023-06-22T14:36:13;23.40;99.90
42201;DHT22;27869;51.442;7.540;2023-06-22T14:38:40;23.40;99.90
42201;DHT22;27869;51.442;7.540;2023-06-22T14:41:07;23.50;99.90
42201;DHT22;27869;51.442;7.540;2023-06-22T14:43:34;23.50;99.90
42201;DHT22;27869;51.442;7.540;2023-06-22T14:46:01;23.50;99.90
42201;DHT22;27869;51.442;7.540;2023-06-22T14:48:28;23.50;99.90
42201;DHT22;27869;51.442;7.540;2023-06-22T14:50:55;23.50;99.90
42201;DHT22;27869;51.442;7.540;2023-06-22T14:53:23;23.50;99.90
42201;DHT22;27869;51.442;7.540;2023-06-22T14:55:49;23.50;99.90
42201;DHT22;27869;51.442;7.540;2023-06-22T14:58:16;23.50;99.90
42201;DHT22;27869;51.442;7.540;2023-06-22T15:00:46;23.50;99.90
42201;DHT22;27869;51.442;7.540;2023-06-22T15:03:13;23.50;99.90
42201;DHT22;27869;51.442;7.540;2023-06-22T15:05:46;23.50;99.90
42201;DHT22;27869;51.442;7.540;2023-06-22T15:08:13;23.50;99.90
42201;DHT22;27869;51.442;7.540;2023-06-22T15:10:41;23.50;99.90
42201;DHT22;27869;51.442;7.540;2023-06-22T15:13:08;23.50;99.90
42201;DHT22;27869;51.442;7.540;2023-06-22T15:15:35;23.50;99.90
42201;DHT22;27869;51.442;7.540;2023-06-22T15:18:01;23.40;99.90
42201;DHT22;27869;51.442;7.540;2023-06-22T15:20:28;23.40;99.90
42201;DHT22;27869;51.442;7.540;2023-06-22T15:22:56;23.30;99.90
42201;DHT22;27869;51.442;7.540;2023-06-22T15:25:23;23.30;99.90
42201;DHT22;27869;51.442;7.540;2023-06-22T15:27:51;23.30;99.90
42201;DHT22;27869;51.442;7.540;2023-06-22T15:30:20;23.20;99.90
42201;DHT22;27869;51.442;7.540;2023-06-22T15:32:47;23.20;99.90